createdAt,value
2018-10-11T00:01:04.677Z,99.90
2018-10-11T00:03:32.902Z,99.90
2018-10-11T00:06:01.165Z,99.90
2018-10-11T00:08:29.392Z,99.90
2018-10-11T00:10:57.641Z,99.90
2018-10-11T00:13:26.042Z,99.90
2018-10-11T00:15:54.289Z,99.90
2018-10-11T00:18:22.513Z,99.90
2018-10-11T00:20:50.733Z,99.90
2018-10-11T00:23:18.926Z,99.90
2018-10-11T00:25:47.162Z,99.90
2018-10-11T00:28:15.370Z,99.90
2018-10-11T00:30:43.657Z,99.90
2018-10-11T00:33:11.865Z,99.90
2018-10-11T00:35:40.080Z,99.90
2018-10-11T00:38:08.266Z,99.90
2018-10-11T00:40:36.449Z,99.90
2018-10-11T00:43:04.709Z,99.90
2018-10-11T00:45:32.957Z,99.90
2018-10-11T00:48:01.174Z,99.90
2018-10-11T00:50:29.421Z,99.90
2018-10-11T00:52:57.633Z,99.90
2018-10-11T00:55:25.865Z,99.90
2018-10-11T00:57:54.154Z,99.90
2018-10-11T01:00:22.542Z,99.90
2018-10-11T01:02:50.735Z,99.90
2018-10-11T01:05:18.937Z,99.90
2018-10-11T01:07:47.151Z,99.90
2018-10-11T01:10:15.404Z,99.90
2018-10-11T01:12:44.089Z,99.90
2018-10-11T01:15:12.486Z,99.90
2018-10-11T01:20:08.939Z,99.90
2018-10-11T01:22:37.192Z,99.90
2018-10-11T01:25:05.437Z,99.90
2018-10-11T01:27:33.666Z,99.90
2018-10-11T01:30:02.013Z,99.90
2018-10-11T01:32:30.195Z,99.90
2018-10-11T01:34:58.416Z,99.90
2018-10-11T01:37:27.426Z,99.90
2018-10-11T01:39:55.662Z,99.90
2018-10-11T01:42:24.126Z,99.90
2018-10-11T01:44:52.347Z,99.90
2018-10-11T01:47:20.614Z,99.90
2018-10-11T01:49:48.852Z,99.90
2018-10-11T01:52:17.056Z,99.90
2018-10-11T01:54:45.273Z,99.90
2018-10-11T01:57:13.505Z,99.90
2018-10-11T01:59:41.798Z,99.90
2018-10-11T02:02:10.049Z,99.90
2018-10-11T02:04:38.270Z,99.90
2018-10-11T02:07:06.729Z,99.90
2018-10-11T02:09:35.075Z,99.90
2018-10-11T02:12:03.189Z,99.90
2018-10-11T02:14:31.466Z,99.90
2018-10-11T02:16:59.699Z,99.90
2018-10-11T02:19:27.979Z,99.90
2018-10-11T02:21:56.263Z,99.90
2018-10-11T02:24:24.500Z,99.90
2018-10-11T02:26:52.721Z,99.90
2018-10-11T02:29:20.998Z,99.90
2018-10-11T02:31:49.311Z,99.90
2018-10-11T02:34:17.484Z,99.90
2018-10-11T02:36:45.730Z,99.90
2018-10-11T02:39:13.984Z,99.90
2018-10-11T02:41:42.202Z,99.90
2018-10-11T02:44:10.496Z,99.90
2018-10-11T02:46:38.740Z,99.90
2018-10-11T02:49:07.026Z,99.90
2018-10-11T02:51:35.285Z,99.90
2018-10-11T02:54:03.540Z,99.90
2018-10-11T02:56:31.773Z,99.90
2018-10-11T02:59:11.401Z,99.90
2018-10-11T03:01:39.855Z,99.90
2018-10-11T03:04:08.142Z,99.90
2018-10-11T03:06:37.928Z,99.90
2018-10-11T03:09:06.857Z,99.90
2018-10-11T03:11:35.574Z,99.90
2018-10-11T03:14:03.780Z,99.90
2018-10-11T03:16:31.980Z,99.90
2018-10-11T03:19:00.211Z,99.90
2018-10-11T03:21:28.505Z,99.90
2018-10-11T03:23:56.713Z,99.90
2018-10-11T03:26:24.934Z,99.90
2018-10-11T03:28:53.183Z,99.90
2018-10-11T03:31:21.431Z,99.90
2018-10-11T03:33:49.632Z,99.90
2018-10-11T03:36:17.853Z,99.90
2018-10-11T03:38:46.090Z,99.90
2018-10-11T03:41:14.393Z,99.90
2018-10-11T03:43:42.595Z,99.90
2018-10-11T03:46:10.960Z,99.90
2018-10-11T03:48:39.223Z,99.90
2018-10-11T03:51:07.422Z,99.90
2018-10-11T03:53:35.676Z,99.90
2018-10-11T03:56:04.003Z,99.90
2018-10-11T03:58:32.247Z,99.90
2018-10-11T04:01:00.482Z,99.90
2018-10-11T04:03:28.737Z,99.90
2018-10-11T04:05:56.968Z,99.90
2018-10-11T04:08:25.348Z,99.90
2018-10-11T04:10:53.584Z,99.90
2018-10-11T04:13:21.802Z,99.90
2018-10-11T04:15:50.014Z,99.90
2018-10-11T04:18:18.304Z,99.90
2018-10-11T04:20:46.549Z,99.90
2018-10-11T04:23:19.104Z,99.90
2018-10-11T04:25:47.620Z,99.90
2018-10-11T04:28:15.902Z,99.90
2018-10-11T04:30:44.099Z,99.90
2018-10-11T04:33:12.292Z,99.90
2018-10-11T04:35:40.511Z,99.90
2018-10-11T04:38:08.726Z,99.90
2018-10-11T04:40:36.952Z,99.90
2018-10-11T04:43:05.477Z,99.90
2018-10-11T04:45:33.521Z,99.90
2018-10-11T04:48:01.759Z,99.90
2018-10-11T04:50:29.997Z,99.90
2018-10-11T04:52:58.217Z,99.90
2018-10-11T04:55:26.815Z,99.90
2018-10-11T04:57:55.546Z,99.90
2018-10-11T05:00:23.779Z,99.90
2018-10-11T05:02:51.995Z,99.90
2018-10-11T05:05:20.708Z,99.90
2018-10-11T05:07:48.892Z,99.90
2018-10-11T05:10:17.095Z,99.90
2018-10-11T05:12:45.485Z,99.90
2018-10-11T05:15:13.763Z,99.90
2018-10-11T05:17:42.320Z,99.90
2018-10-11T05:20:10.581Z,99.90
2018-10-11T05:22:38.800Z,99.90
2018-10-11T05:25:07.191Z,99.90
2018-10-11T05:27:35.454Z,99.90
2018-10-11T05:30:04.021Z,99.90
2018-10-11T05:32:32.255Z,99.90
2018-10-11T05:35:00.481Z,99.90
2018-10-11T05:37:29.164Z,99.90
2018-10-11T05:39:57.405Z,99.90
2018-10-11T05:42:25.714Z,99.90
2018-10-11T05:45:00.385Z,99.90
2018-10-11T05:47:28.764Z,99.90
2018-10-11T05:49:56.970Z,99.90
2018-10-11T05:52:25.229Z,99.90
2018-10-11T05:54:53.524Z,99.90
2018-10-11T05:57:22.040Z,99.90
2018-10-11T05:59:50.417Z,99.90
2018-10-11T06:02:18.677Z,99.90
2018-10-11T06:04:46.937Z,99.90
2018-10-11T06:07:15.162Z,99.90
2018-10-11T06:09:43.429Z,99.90
2018-10-11T06:12:11.713Z,99.90
2018-10-11T06:14:40.031Z,99.90
2018-10-11T06:17:08.219Z,99.90
2018-10-11T06:19:36.464Z,99.90
2018-10-11T06:22:04.704Z,99.90
2018-10-11T06:24:32.957Z,99.90
2018-10-11T06:27:01.232Z,99.90
2018-10-11T06:29:29.465Z,99.90
2018-10-11T06:31:57.812Z,99.90
2018-10-11T06:34:26.609Z,99.90
2018-10-11T06:36:55.182Z,99.90
2018-10-11T06:39:23.403Z,99.90
2018-10-11T06:41:51.688Z,99.90
2018-10-11T06:44:19.858Z,99.90
2018-10-11T06:46:48.184Z,99.90
2018-10-11T06:49:16.469Z,99.90
2018-10-11T06:51:44.722Z,99.90
2018-10-11T06:54:12.923Z,99.90
2018-10-11T06:56:41.186Z,99.90
2018-10-11T06:59:09.459Z,99.90
2018-10-11T07:01:37.704Z,99.90
2018-10-11T07:04:05.968Z,99.90
2018-10-11T07:06:34.179Z,99.90
2018-10-11T07:09:02.424Z,99.90
2018-10-11T07:11:30.646Z,99.90
2018-10-11T07:13:58.984Z,99.90
2018-10-11T07:16:27.163Z,99.90
2018-10-11T07:18:55.390Z,99.90
2018-10-11T07:21:23.635Z,99.90
2018-10-11T07:23:51.837Z,99.90
2018-10-11T07:26:20.122Z,99.90
2018-10-11T07:28:48.327Z,99.90
2018-10-11T07:31:16.543Z,99.90
2018-10-11T07:36:12.746Z,99.90
2018-10-11T07:38:40.957Z,99.90
2018-10-11T07:41:09.395Z,99.90
2018-10-11T07:43:37.364Z,99.90
2018-10-11T07:46:05.869Z,99.90
2018-10-11T07:48:34.111Z,99.90
2018-10-11T07:51:02.326Z,99.90
2018-10-11T07:53:30.556Z,99.90
2018-10-11T07:55:58.806Z,99.90
2018-10-11T07:58:27.033Z,99.90
2018-10-11T08:00:55.250Z,99.90
2018-10-11T08:03:23.485Z,99.90
2018-10-11T08:05:51.673Z,99.90
2018-10-11T08:08:19.959Z,99.90
2018-10-11T08:10:48.196Z,99.90
2018-10-11T08:13:16.321Z,99.90
2018-10-11T08:15:44.544Z,99.40
2018-10-11T08:18:12.749Z,99.90
2018-10-11T08:20:41.085Z,99.90
2018-10-11T08:23:09.293Z,99.90
2018-10-11T08:25:37.896Z,99.90
2018-10-11T08:28:05.805Z,99.90
2018-10-11T08:30:34.633Z,99.90
2018-10-11T08:33:02.922Z,99.90
2018-10-11T08:35:31.172Z,99.70
2018-10-11T08:37:59.488Z,99.70
2018-10-11T08:40:27.631Z,99.90
2018-10-11T08:42:55.909Z,98.30
2018-10-11T08:45:24.105Z,93.60
2018-10-11T08:47:52.342Z,63.60
2018-10-11T08:50:20.600Z,56.00
2018-10-11T08:55:16.840Z,53.00
2018-10-11T08:57:45.089Z,49.30
2018-10-11T09:00:13.380Z,49.10
2018-10-11T09:02:41.627Z,50.60
2018-10-11T09:05:09.965Z,47.00
2018-10-11T09:07:38.141Z,46.40
2018-10-11T09:10:06.455Z,42.40
2018-10-11T09:12:34.705Z,42.30
2018-10-11T09:15:03.029Z,41.00
2018-10-11T09:17:31.302Z,40.10
2018-10-11T09:19:59.525Z,39.60
2018-10-11T09:22:27.729Z,39.80
2018-10-11T09:24:55.969Z,40.80
2018-10-11T09:27:24.188Z,39.70
2018-10-11T09:32:20.380Z,38.70
2018-10-11T09:34:48.598Z,40.20
2018-10-11T09:37:16.789Z,39.80
2018-10-11T09:39:45.012Z,40.20
2018-10-11T09:42:13.221Z,39.50
2018-10-11T09:44:41.467Z,38.20
2018-10-11T09:47:09.731Z,37.60
2018-10-11T09:49:38.020Z,37.30
2018-10-11T09:52:06.217Z,37.30
2018-10-11T09:54:34.550Z,37.30
2018-10-11T09:57:34.727Z,37.30
2018-10-11T10:00:04.358Z,37.20
2018-10-11T10:02:32.909Z,38.60
2018-10-11T10:05:02.377Z,38.20
2018-10-11T10:07:30.590Z,37.60
2018-10-11T10:09:58.891Z,38.40
2018-10-11T10:12:27.117Z,39.70
2018-10-11T10:14:55.328Z,40.30
2018-10-11T10:17:23.729Z,39.80
2018-10-11T10:19:51.973Z,39.40
2018-10-11T10:22:20.218Z,39.40
2018-10-11T10:24:48.468Z,39.50
2018-10-11T10:27:16.924Z,39.90
2018-10-11T10:29:44.981Z,40.00
2018-10-11T10:32:13.197Z,39.90
2018-10-11T10:34:41.481Z,40.70
2018-10-11T10:37:09.667Z,41.40
2018-10-11T10:39:37.964Z,41.70
2018-10-11T10:42:06.378Z,42.40
2018-10-11T10:44:34.592Z,42.80
2018-10-11T10:47:02.821Z,42.50
2018-10-11T10:49:31.050Z,43.60
2018-10-11T10:51:59.282Z,43.80
2018-10-11T10:59:25.321Z,44.10
2018-10-11T11:01:53.678Z,47.70
2018-10-11T11:04:21.965Z,47.70
2018-10-11T11:06:50.232Z,49.20
2018-10-11T11:09:18.433Z,47.90
2018-10-11T11:11:46.630Z,48.40
2018-10-11T11:14:15.739Z,49.00
2018-10-11T11:16:44.428Z,49.60
2018-10-11T11:19:12.980Z,49.10
2018-10-11T11:21:41.326Z,48.50
2018-10-11T11:24:09.690Z,49.30
2018-10-11T11:26:37.990Z,49.70
2018-10-11T11:29:06.670Z,50.10
2018-10-11T11:31:34.919Z,50.40
2018-10-11T11:34:03.617Z,49.90
2018-10-11T11:36:31.878Z,50.10
2018-10-11T11:39:00.150Z,50.10
2018-10-11T11:41:28.406Z,49.90
2018-10-11T11:43:56.597Z,51.60
2018-10-11T11:46:24.839Z,52.50
2018-10-11T11:48:53.034Z,53.80
2018-10-11T11:51:21.252Z,52.50
2018-10-11T11:53:49.513Z,54.40
2018-10-11T11:56:17.795Z,53.70
2018-10-11T12:01:14.007Z,51.30
2018-10-11T12:03:42.251Z,52.00
2018-10-11T12:06:10.935Z,53.30
2018-10-11T12:08:40.108Z,52.30
2018-10-11T12:11:08.397Z,54.00
2018-10-11T12:13:36.678Z,54.90
2018-10-11T12:16:05.098Z,53.00
2018-10-11T12:18:33.285Z,54.30
2018-10-11T12:21:01.478Z,53.00
2018-10-11T12:23:29.714Z,54.10
2018-10-11T12:25:57.901Z,54.20
2018-10-11T12:28:26.150Z,55.90
2018-10-11T12:30:54.349Z,55.40
2018-10-11T12:33:22.575Z,54.40
2018-10-11T12:35:50.782Z,55.90
2018-10-11T12:38:18.987Z,55.70
2018-10-11T12:40:47.179Z,55.90
2018-10-11T12:43:15.447Z,54.10
2018-10-11T12:45:43.660Z,53.80
2018-10-11T12:48:11.887Z,54.20
2018-10-11T12:50:40.099Z,56.20
2018-10-11T12:53:08.343Z,55.10
2018-10-11T12:55:36.541Z,56.90
2018-10-11T12:58:04.747Z,58.10
2018-10-11T13:00:32.978Z,56.30
2018-10-11T13:03:01.352Z,56.60
2018-10-11T13:05:30.474Z,57.20
2018-10-11T13:07:58.733Z,57.10
2018-10-11T13:10:26.962Z,56.80
2018-10-11T13:12:58.094Z,56.40
2018-10-11T13:15:23.410Z,55.70
2018-10-11T13:17:51.633Z,55.80
2018-10-11T13:20:19.841Z,56.00
2018-10-11T13:22:48.157Z,55.70
2018-10-11T13:25:16.395Z,57.60
2018-10-11T13:27:44.646Z,56.40
2018-10-11T13:30:13.020Z,57.80
2018-10-11T13:32:41.237Z,57.30
2018-10-11T13:35:09.523Z,57.10
2018-10-11T13:37:37.758Z,57.00
2018-10-11T13:40:06.025Z,57.10
2018-10-11T13:42:34.262Z,56.70
2018-10-11T13:45:02.477Z,56.60
2018-10-11T13:47:32.705Z,57.00
2018-10-11T13:49:58.942Z,56.80
2018-10-11T13:52:27.162Z,56.50
2018-10-11T13:54:55.368Z,56.90
2018-10-11T13:57:25.943Z,57.40
2018-10-11T13:59:51.898Z,58.20
2018-10-11T14:02:20.109Z,59.20
2018-10-11T14:04:48.335Z,59.70
2018-10-11T14:07:16.582Z,59.60
2018-10-11T14:09:44.784Z,59.40
2018-10-11T14:12:13.022Z,60.60
2018-10-11T14:14:41.285Z,59.70
2018-10-11T14:17:09.475Z,60.20
2018-10-11T14:19:37.698Z,60.20
2018-10-11T14:22:05.912Z,60.00
2018-10-11T14:24:34.123Z,59.30
2018-10-11T14:27:02.366Z,59.50
2018-10-11T14:29:30.603Z,59.30
2018-10-11T14:31:58.868Z,60.20
2018-10-11T14:34:27.025Z,60.20
2018-10-11T14:36:55.435Z,59.90
2018-10-11T14:39:23.804Z,60.10
2018-10-11T14:41:52.077Z,60.80
2018-10-11T14:44:20.273Z,61.10
2018-10-11T14:46:48.467Z,61.40
2018-10-11T14:49:16.733Z,61.90
2018-10-11T14:51:48.375Z,63.10
2018-10-11T14:54:13.185Z,64.40
2018-10-11T14:56:41.457Z,65.30
2018-10-11T14:59:09.694Z,66.10
2018-10-11T15:01:37.917Z,66.80
2018-10-11T15:04:06.217Z,67.90
2018-10-11T15:06:34.435Z,68.20
2018-10-11T15:09:02.684Z,68.70
2018-10-11T15:11:31.084Z,69.80
2018-10-11T15:13:59.207Z,71.50
2018-10-11T15:16:27.429Z,71.30
2018-10-11T15:18:55.671Z,71.30
2018-10-11T15:21:23.917Z,72.30
2018-10-11T15:23:52.190Z,73.60
2018-10-11T15:28:44.519Z,72.30
2018-10-11T15:31:12.725Z,72.80
2018-10-11T15:33:40.954Z,72.40
2018-10-11T15:36:09.175Z,72.50
2018-10-11T15:38:37.369Z,74.70
2018-10-11T15:41:05.613Z,75.20
2018-10-11T15:43:33.889Z,74.80
2018-10-11T15:46:02.139Z,74.60
2018-10-11T15:48:30.441Z,75.60
2018-10-11T15:50:58.662Z,77.20
2018-10-11T15:53:26.974Z,77.70
2018-10-11T15:55:55.169Z,77.80
2018-10-11T15:58:23.439Z,77.30
2018-10-11T16:00:51.548Z,78.20
2018-10-11T16:03:19.700Z,79.80
2018-10-11T16:05:48.126Z,79.20
2018-10-11T16:08:22.732Z,78.20
2018-10-11T16:10:50.929Z,79.40
2018-10-11T16:13:19.112Z,79.30
2018-10-11T16:15:47.272Z,80.80
2018-10-11T16:18:15.461Z,82.80
2018-10-11T16:20:43.610Z,83.00
2018-10-11T16:23:11.780Z,84.80
2018-10-11T16:25:39.944Z,85.60
2018-10-11T16:28:08.129Z,87.40
2018-10-11T16:30:36.480Z,87.80
2018-10-11T16:33:04.916Z,88.40
2018-10-11T16:35:33.108Z,89.30
2018-10-11T16:38:01.264Z,90.00
2018-10-11T16:40:29.417Z,90.40
2018-10-11T16:42:57.581Z,90.50
2018-10-11T16:45:25.806Z,90.90
2018-10-11T16:47:53.981Z,91.00
2018-10-11T16:50:22.336Z,91.40
2018-10-11T16:52:50.523Z,91.30
2018-10-11T16:55:18.672Z,90.40
2018-10-11T16:57:46.870Z,90.20
2018-10-11T17:00:15.148Z,90.50
2018-10-11T17:02:43.391Z,90.00
2018-10-11T17:05:11.590Z,90.10
2018-10-11T17:07:39.818Z,91.30
2018-10-11T17:10:08.113Z,91.50
2018-10-11T17:12:36.340Z,91.50
2018-10-11T17:15:04.584Z,92.00
2018-10-11T17:17:32.768Z,92.30
2018-10-11T17:20:00.997Z,92.90
2018-10-11T17:22:29.197Z,93.10
2018-10-11T17:24:57.429Z,93.70
2018-10-11T17:27:25.755Z,94.10
2018-10-11T17:29:53.981Z,95.00
2018-10-11T17:32:22.351Z,95.80
2018-10-11T17:34:50.797Z,96.60
2018-10-11T17:37:19.025Z,97.50
2018-10-11T17:39:47.221Z,97.30
2018-10-11T17:42:15.510Z,97.00
2018-10-11T17:44:43.659Z,97.50
2018-10-11T17:47:11.874Z,97.00
2018-10-11T17:49:40.097Z,97.60
2018-10-11T17:52:08.362Z,98.50
2018-10-11T17:54:36.623Z,98.60
2018-10-11T17:57:04.889Z,97.00
2018-10-11T17:59:33.145Z,95.50
2018-10-11T18:02:01.374Z,94.90
2018-10-11T18:04:29.629Z,94.50
2018-10-11T18:06:57.869Z,94.10
2018-10-11T18:09:26.074Z,93.80
2018-10-11T18:11:54.326Z,93.70
2018-10-11T18:14:22.598Z,93.40
2018-10-11T18:16:50.963Z,93.40
2018-10-11T18:19:19.222Z,93.10
2018-10-11T18:21:47.556Z,93.00
2018-10-11T18:24:15.721Z,92.90
2018-10-11T18:26:44.030Z,92.90
2018-10-11T18:29:12.417Z,92.90
2018-10-11T18:31:40.592Z,92.70
2018-10-11T18:34:08.844Z,92.70
2018-10-11T18:36:37.080Z,92.50
2018-10-11T18:39:09.247Z,92.30
2018-10-11T18:41:37.584Z,92.50
2018-10-11T18:44:05.939Z,92.60
2018-10-11T18:46:34.426Z,92.50
2018-10-11T18:49:02.658Z,92.20
2018-10-11T18:51:30.897Z,92.00
2018-10-11T18:53:59.164Z,91.70
2018-10-11T18:56:27.533Z,91.80
2018-10-11T18:58:55.782Z,91.90
2018-10-11T19:01:24.066Z,91.70
2018-10-11T19:03:52.934Z,91.70
2018-10-11T19:06:21.161Z,91.80
2018-10-11T19:08:49.647Z,91.70
2018-10-11T19:11:17.885Z,91.60
2018-10-11T19:13:46.120Z,91.70
2018-10-11T19:16:14.517Z,91.70
2018-10-11T19:18:42.745Z,91.70
2018-10-11T19:21:10.967Z,91.70
2018-10-11T19:23:39.445Z,91.90
2018-10-11T19:26:08.723Z,92.20
2018-10-11T19:28:37.192Z,92.20
2018-10-11T19:31:05.544Z,92.20
2018-10-11T19:33:33.714Z,92.20
2018-10-11T19:36:01.964Z,92.20
2018-10-11T19:38:30.189Z,93.00
2018-10-11T19:40:58.426Z,93.40
2018-10-11T19:43:26.653Z,93.40
2018-10-11T19:45:54.957Z,93.70
2018-10-11T19:48:23.206Z,94.20
2018-10-11T19:50:51.450Z,94.30
2018-10-11T19:53:19.779Z,94.60
2018-10-11T19:55:48.034Z,94.80
2018-10-11T19:58:16.255Z,94.50
2018-10-11T20:00:44.746Z,94.80
2018-10-11T20:03:13.042Z,95.10
2018-10-11T20:05:41.292Z,95.40
2018-10-11T20:08:09.610Z,96.30
2018-10-11T20:10:37.819Z,96.40
2018-10-11T20:13:06.084Z,96.40
2018-10-11T20:15:34.420Z,96.90
2018-10-11T20:18:03.904Z,96.80
2018-10-11T20:20:30.897Z,97.30
2018-10-11T20:22:59.152Z,98.10
2018-10-11T20:25:27.460Z,98.60
2018-10-11T20:27:55.701Z,99.20
2018-10-11T20:30:23.897Z,99.40
2018-10-11T20:32:52.166Z,98.80
2018-10-11T20:35:20.545Z,98.40
2018-10-11T20:37:48.817Z,98.20
2018-10-11T20:40:17.105Z,97.80
2018-10-11T20:42:45.341Z,97.60
2018-10-11T20:45:13.619Z,97.40
2018-10-11T20:47:41.982Z,97.10
2018-10-11T20:50:10.237Z,96.90
2018-10-11T20:52:38.574Z,96.70
2018-10-11T20:55:07.005Z,96.80
2018-10-11T20:57:35.262Z,97.00
2018-10-11T21:00:03.598Z,96.80
2018-10-11T21:02:31.797Z,96.60
2018-10-11T21:05:00.029Z,96.70
2018-10-11T21:07:28.296Z,96.80
2018-10-11T21:09:56.532Z,97.10
2018-10-11T21:12:24.810Z,97.00
2018-10-11T21:14:53.048Z,97.20
2018-10-11T21:17:21.310Z,97.20
2018-10-11T21:19:49.554Z,97.60
2018-10-11T21:22:17.785Z,97.50
2018-10-11T21:24:46.053Z,97.90
2018-10-11T21:27:14.299Z,98.50
2018-10-11T21:29:42.551Z,99.60
2018-10-11T21:32:10.760Z,99.90
2018-10-11T21:34:38.983Z,99.90
2018-10-11T21:37:07.192Z,99.90
2018-10-11T21:39:35.440Z,99.80
2018-10-11T21:42:03.684Z,99.80
2018-10-11T21:44:31.912Z,99.90
2018-10-11T21:47:00.185Z,99.80
2018-10-11T21:49:28.444Z,99.90
2018-10-11T21:51:56.736Z,99.90
2018-10-11T21:54:24.988Z,99.90
2018-10-11T21:56:53.207Z,99.90
2018-10-11T21:59:21.457Z,99.90
2018-10-11T22:01:49.673Z,99.70
2018-10-11T22:04:17.897Z,99.40
2018-10-11T22:06:46.134Z,99.30
2018-10-11T22:09:14.351Z,99.00
2018-10-11T22:11:42.610Z,98.90
2018-10-11T22:14:10.827Z,98.80
2018-10-11T22:16:39.025Z,98.70
2018-10-11T22:19:07.605Z,98.70
2018-10-11T22:21:35.821Z,98.60
2018-10-11T22:24:04.046Z,98.60
2018-10-11T22:26:32.291Z,98.60
2018-10-11T22:29:00.505Z,98.70
2018-10-11T22:31:28.753Z,98.70
2018-10-11T22:33:56.979Z,98.60
2018-10-11T22:36:25.237Z,98.60
2018-10-11T22:38:53.434Z,98.60
2018-10-11T22:41:21.660Z,98.50
2018-10-11T22:43:49.913Z,98.70
2018-10-11T22:46:18.159Z,98.70
2018-10-11T22:48:46.377Z,98.90
2018-10-11T22:51:14.697Z,99.10
2018-10-11T22:53:43.008Z,99.10
2018-10-11T22:56:11.264Z,99.10
2018-10-11T22:58:39.484Z,99.20
2018-10-11T23:01:07.741Z,99.20
2018-10-11T23:03:35.983Z,99.30
2018-10-11T23:06:04.220Z,99.20
2018-10-11T23:08:32.464Z,99.20
2018-10-11T23:11:00.728Z,99.40
2018-10-11T23:13:28.960Z,98.90
2018-10-11T23:15:57.230Z,98.90
2018-10-11T23:18:25.450Z,98.80
2018-10-11T23:20:53.679Z,98.60
2018-10-11T23:23:21.922Z,98.50
2018-10-11T23:25:50.159Z,98.20
2018-10-11T23:28:18.388Z,98.00
2018-10-11T23:30:46.622Z,97.80
2018-10-11T23:33:14.823Z,97.60
2018-10-11T23:35:43.072Z,97.40
2018-10-11T23:38:11.289Z,97.10
2018-10-11T23:40:39.494Z,96.90
2018-10-11T23:43:07.769Z,96.80
2018-10-11T23:45:35.992Z,96.70
2018-10-11T23:48:04.198Z,96.60
2018-10-11T23:50:32.478Z,96.60
2018-10-11T23:53:00.705Z,96.50
2018-10-11T23:55:31.273Z,96.50
2018-10-11T23:58:00.270Z,96.50
